Great Dunmow, United Kingdom
Current Conditions -  °F | °C
As of 12:50 PM on Friday 31 Oct 2014 (Local Time) from EGSS Reporting Station
Clear Clear  
Wind Chill: 19°   Ceiling: Unl
Heat Index: 19°   Visibility: 6mi
Dew Point: 15°   Wind: 10mph
Humidity: 78%   Direction: 170°S
Pressure: 30.03"   Gusts: NA
Location:  51.87°N, 0.36°E
Report Text: EGSS 311250Z 17009KT CAVOK 19/15 Q1017
Loading
Personal Weather Stations






























Interactive Weather Map
Tropical Storm Tracking
New forecast layout! Learn more

10-Day Weather Forecast

Advertisements
Track Severe Weather on mobile